Time;durP1;ratioP1;P1;durP2;ratioP2;P2;SDS_P1;SDS_P2;PMS_P1;PMS_P2;Temp;Humidity;BMP_temperature;BMP_pressure;BME280_temperature;BME280_humidity;BME280_pressure;Samples;Min_cycle;Max_cycle;Signal;HPM_P1;HPM_P2
2023/02/24 00:08:46;;;;;;;58.80;26.40;;;;;;;8.06;100.00;99973.22;20853534;28;20063;-76
2023/02/24 00:18:48;;;;;;;67.53;28.20;;;;;;;7.97;100.00;99975.94;20857185;28;20049;-74
2023/02/24 00:28:49;;;;;;;68.05;29.70;;;;;;;7.85;100.00;99956.06;20868791;28;20059;-74
2023/02/24 00:38:54;;;;;;;67.35;28.88;;;;;;;7.77;100.00;99947.50;20869225;28;20051;-75
2023/02/24 00:48:56;;;;;;;71.53;28.60;;;;;;;7.76;100.00;99961.44;20865840;28;20062;-75
2023/02/24 00:58:57;;;;;;;71.80;29.27;;;;;;;7.81;100.00;99940.50;20862793;28;20061;-75
2023/02/24 01:08:59;;;;;;;76.57;29.83;;;;;;;7.79;100.00;99937.91;20869684;28;20092;-76
2023/02/24 01:19:00;;;;;;;77.40;29.63;;;;;;;7.76;100.00;99924.94;20870586;28;20059;-76
2023/02/24 01:29:03;;;;;;;74.15;28.85;;;;;;;7.73;100.00;99914.53;20866059;28;20448;-74
2023/02/24 01:39:06;;;;;;;72.68;28.92;;;;;;;7.78;100.00;99915.34;20866912;28;20056;-74
2023/02/24 01:49:07;;;;;;;68.75;27.60;;;;;;;7.88;100.00;99906.53;20860148;28;20053;-74
2023/02/24 01:59:08;;;;;;;70.90;29.00;;;;;;;7.84;100.00;99894.41;20861966;28;20560;-74
2023/02/24 02:09:10;;;;;;;70.75;29.88;;;;;;;7.86;100.00;99897.88;20860864;28;20056;-74
2023/02/24 02:19:11;;;;;;;68.22;28.92;;;;;;;7.93;100.00;99883.00;20861437;28;20052;-74
2023/02/24 02:29:13;;;;;;;70.75;27.13;;;;;;;7.81;100.00;99875.34;20857901;28;20317;-75
2023/02/24 02:39:14;;;;;;;67.25;27.80;;;;;;;7.73;100.00;99867.63;20860278;28;20481;-74
2023/02/24 02:49:15;;;;;;;68.82;26.83;;;;;;;7.64;100.00;99852.13;20858075;28;20103;-74
2023/02/24 02:59:21;;;;;;;66.97;25.83;;;;;;;7.74;100.00;99860.69;20851395;28;20132;-81
2023/02/24 03:09:22;;;;;;;62.17;24.70;;;;;;;7.73;100.00;99846.78;20860087;28;20417;-76
2023/02/24 03:19:24;;;;;;;62.83;25.25;;;;;;;7.66;100.00;99839.91;20853525;28;20059;-77
2023/02/24 03:29:25;;;;;;;59.78;23.58;;;;;;;7.65;100.00;99838.19;20856169;28;20059;-78
2023/02/24 03:39:26;;;;;;;59.60;24.58;;;;;;;7.74;100.00;99835.47;20862397;28;20254;-77
2023/02/24 03:49:28;;;;;;;66.18;26.75;;;;;;;7.84;100.00;99825.78;20834878;28;20045;-75
2023/02/24 03:59:29;;;;;;;58.65;22.38;;;;;;;7.70;100.00;99833.78;20852930;28;20057;-76
2023/02/24 04:09:32;;;;;;;55.55;22.40;;;;;;;7.71;100.00;99825.97;20850747;28;20104;-77
2023/02/24 04:19:37;;;;;;;61.92;24.75;;;;;;;7.73;100.00;99820.72;20850930;28;20048;-80
2023/02/24 04:29:39;;;;;;;60.75;25.08;;;;;;;7.67;100.00;99808.66;20854513;28;20472;-78
2023/02/24 04:39:40;;;;;;;56.65;21.63;;;;;;;7.59;100.00;99784.44;20853405;28;20533;-77
2023/02/24 04:49:43;;;;;;;52.85;21.08;;;;;;;7.58;100.00;99779.25;20862162;28;20056;-78
2023/02/24 04:59:45;;;;;;;58.30;21.90;;;;;;;7.62;100.00;99773.13;20855153;28;20431;-76
2023/02/24 05:09:47;;;;;;;59.60;23.40;;;;;;;7.69;100.00;99748.69;20863048;28;20100;-75
2023/02/24 05:30:10;;;;;;;52.42;20.88;;;;;;;7.55;100.00;99711.56;20859055;28;20050;-78
2023/02/24 05:40:12;;;;;;;57.72;21.05;;;;;;;7.55;100.00;99724.56;20865871;28;20057;-76
2023/02/24 05:50:13;;;;;;;52.55;20.30;;;;;;;7.61;100.00;99706.25;20861523;28;20402;-76
2023/02/24 06:00:15;;;;;;;52.10;21.48;;;;;;;7.62;100.00;99689.75;20862244;28;20049;-76
2023/02/24 06:10:17;;;;;;;52.45;20.85;;;;;;;7.60;100.00;99681.09;20861728;28;20460;-77
2023/02/24 06:20:18;;;;;;;56.80;21.73;;;;;;;7.60;100.00;99681.94;20858269;28;20072;-74
2023/02/24 06:30:20;;;;;;;62.85;24.30;;;;;;;7.55;100.00;99682.91;20860352;28;20119;-76
2023/02/24 06:40:22;;;;;;;60.10;23.00;;;;;;;7.63;100.00;99675.84;20860198;28;20050;-75
2023/02/24 06:50:23;;;;;;;69.18;24.70;;;;;;;7.64;100.00;99667.13;20860592;28;20049;-77
2023/02/24 07:00:35;;;;;;;60.40;22.92;;;;;;;7.54;100.00;99691.59;20856913;28;20045;-77
2023/02/24 07:10:37;;;;;;;59.70;22.17;;;;;;;7.64;100.00;99675.81;20874213;28;20430;-77
2023/02/24 07:20:42;;;;;;;61.10;22.75;;;;;;;7.68;100.00;99679.22;20882430;28;20049;-77
2023/02/24 07:30:45;;;;;;;60.42;24.67;;;;;;;7.75;100.00;99665.22;20857930;28;20045;-79
2023/02/24 07:40:47;;;;;;;52.75;22.80;;;;;;;7.99;100.00;99653.50;20860601;28;20044;-78
2023/02/24 07:50:49;;;;;;;62.33;23.92;;;;;;;8.25;100.00;99657.44;20845640;28;20052;-78
2023/02/24 08:01:06;;;;;;;48.88;21.15;;;;;;;8.39;100.00;99651.09;20855078;28;20053;-77
2023/02/24 08:11:11;;;;;;;58.00;22.23;;;;;;;8.28;100.00;99649.53;20833917;28;20041;-79
2023/02/24 08:21:15;;;;;;;57.75;22.58;;;;;;;8.18;100.00;99648.84;20860710;28;20432;-76
2023/02/24 08:31:17;;;;;;;51.38;21.52;;;;;;;8.07;100.00;99636.00;20854067;28;20500;-77
2023/02/24 08:41:27;;;;;;;50.53;20.83;;;;;;;8.40;100.00;99633.69;20869339;28;20053;-78
2023/02/24 08:51:33;;;;;;;54.50;20.23;;;;;;;8.59;100.00;99624.63;20865289;28;20049;-78
2023/02/24 09:01:35;;;;;;;52.05;22.23;;;;;;;8.40;100.00;99618.03;20875861;28;20044;-76
2023/02/24 09:11:36;;;;;;;47.97;20.20;;;;;;;8.60;100.00;99617.66;20861462;28;20055;-79
2023/02/24 09:22:04;;;;;;;46.95;20.00;;;;;;;8.77;100.00;99601.63;20872223;28;20045;-78
2023/02/24 09:32:03;;;;;;;47.60;20.30;;;;;;;8.56;100.00;99597.72;20861821;28;20156;-77
2023/02/24 09:52:15;;;;;;;50.05;20.25;;;;;;;8.93;100.00;99569.94;20867777;28;20057;-79
2023/02/24 10:02:16;;;;;;;44.00;17.92;;;;;;;9.33;100.00;99566.41;20888983;28;20111;-80
2023/02/24 10:12:18;;;;;;;41.38;18.08;;;;;;;10.01;100.00;99545.50;20877706;28;20057;-78
2023/02/24 10:22:26;;;;;;;36.38;15.82;;;;;;;10.11;100.00;99535.66;20871029;28;20143;-78
2023/02/24 10:32:32;;;;;;;36.42;16.67;;;;;;;9.98;100.00;99519.44;20882176;28;20096;-78
2023/02/24 10:42:36;;;;;;;32.70;14.57;;;;;;;10.20;100.00;99513.59;20889539;28;20179;-78
2023/02/24 10:52:52;;;;;;;37.53;16.13;;;;;;;10.35;100.00;99500.13;20883497;28;20053;-78
2023/02/24 11:02:56;;;;;;;40.35;17.27;;;;;;;10.22;100.00;99490.88;20859845;28;20052;-77
2023/02/24 11:23:31;;;;;;;35.70;16.05;;;;;;;10.83;100.00;99421.00;20868784;28;20057;-79
2023/02/24 11:33:33;;;;;;;37.63;15.48;;;;;;;10.85;100.00;99399.97;20881292;28;20064;-77
2023/02/24 11:43:36;;;;;;;38.47;17.27;;;;;;;10.55;100.00;99393.97;20876764;28;20061;-76
2023/02/24 11:53:47;;;;;;;33.30;15.18;;;;;;;10.84;100.00;99375.56;20879261;28;20076;-78
2023/02/24 12:03:49;;;;;;;42.58;17.63;;;;;;;10.73;100.00;99346.25;20872901;28;20076;-77
2023/02/24 12:13:51;;;;;;;41.50;18.35;;;;;;;10.12;100.00;99328.13;20879847;28;20608;-76
2023/02/24 12:23:52;;;;;;;41.88;18.33;;;;;;;10.25;100.00;99328.59;20867561;28;20037;-77
2023/02/24 12:33:54;;;;;;;38.67;17.27;;;;;;;10.62;100.00;99304.72;20868884;28;20037;-77
2023/02/24 12:43:55;;;;;;;39.05;18.60;;;;;;;10.75;100.00;99285.06;20860784;28;20463;-77
2023/02/24 12:53:56;;;;;;;39.75;18.88;;;;;;;10.84;100.00;99272.59;20914162;23;20097;-68
2023/02/24 13:03:58;;;;;;;44.55;19.58;;;;;;;10.87;100.00;99260.22;20601832;28;20062;-69
2023/02/24 13:13:59;;;;;;;43.22;19.58;;;;;;;10.87;100.00;99244.50;20556927;28;20550;-67
2023/02/24 13:24:00;;;;;;;50.88;20.67;;;;;;;10.65;100.00;99218.25;20558986;28;20505;-67
2023/02/24 13:34:01;;;;;;;42.70;19.52;;;;;;;10.63;100.00;99199.09;20596809;28;20046;-68
2023/02/24 13:44:03;;;;;;;41.03;17.77;;;;;;;10.58;100.00;99205.41;20637579;28;20100;-69
2023/02/24 13:54:04;;;;;;;36.67;16.88;;;;;;;10.57;100.00;99178.38;20636203;28;20046;-68
2023/02/24 14:04:05;;;;;;;33.30;15.48;;;;;;;10.66;100.00;99167.59;20648420;28;20112;-68
2023/02/24 14:14:07;;;;;;;30.35;15.32;;;;;;;10.80;100.00;99151.38;20645805;28;20145;-67
2023/02/24 14:24:08;;;;;;;33.05;14.95;;;;;;;10.71;100.00;99149.09;20630081;28;20050;-68
2023/02/24 14:34:09;;;;;;;33.70;15.02;;;;;;;10.51;100.00;99142.81;20629208;28;20096;-67
2023/02/24 14:44:11;;;;;;;29.00;14.77;;;;;;;10.42;100.00;99118.75;20638184;28;20058;-67
2023/02/24 14:54:13;;;;;;;31.45;16.30;;;;;;;10.47;100.00;99114.19;20637149;28;20112;-68
2023/02/24 15:04:15;;;;;;;33.63;15.82;;;;;;;10.26;100.00;99107.97;20630453;28;20046;-68
2023/02/24 15:14:16;;;;;;;33.85;16.60;;;;;;;10.16;100.00;99098.72;20601595;28;20142;-68
2023/02/24 15:24:17;;;;;;;34.00;16.48;;;;;;;10.16;100.00;99094.31;20634466;28;20057;-67
2023/02/24 15:34:19;;;;;;;32.95;16.92;;;;;;;10.06;100.00;99081.59;20639773;28;20049;-67
2023/02/24 15:44:21;;;;;;;31.90;15.55;;;;;;;9.97;100.00;99067.09;20639395;28;20057;-67
2023/02/24 15:54:22;;;;;;;36.05;15.88;;;;;;;9.92;100.00;99053.34;20641106;28;20066;-67
2023/02/24 16:04:25;;;;;;;35.42;16.75;;;;;;;9.79;100.00;99044.22;20642721;28;20104;-67
2023/02/24 16:14:26;;;;;;;36.50;16.73;;;;;;;9.74;100.00;99036.53;20639785;28;20054;-70
2023/02/24 16:24:28;;;;;;;34.33;15.25;;;;;;;9.61;100.00;99032.59;20636251;28;20612;-69
2023/02/24 16:34:29;;;;;;;29.58;14.95;;;;;;;9.54;100.00;99036.34;20639793;28;20105;-68
2023/02/24 16:44:30;;;;;;;30.45;14.20;;;;;;;9.44;100.00;99044.50;20640550;28;20096;-69
2023/02/24 16:54:32;;;;;;;30.65;15.25;;;;;;;9.33;100.00;99051.78;20638632;28;20051;-69
2023/02/24 17:04:33;;;;;;;26.13;12.45;;;;;;;9.31;100.00;99040.56;20651940;28;20054;-69
2023/02/24 17:14:34;;;;;;;23.90;12.20;;;;;;;9.27;100.00;99038.94;20652571;28;20058;-69
2023/02/24 17:24:35;;;;;;;27.45;12.43;;;;;;;9.04;100.00;99025.75;20650201;28;20062;-69
2023/02/24 17:34:37;;;;;;;28.05;11.77;;;;;;;8.98;100.00;99039.88;20645819;28;20519;-69
2023/02/24 17:44:38;;;;;;;30.33;12.73;;;;;;;8.89;100.00;99061.88;20650110;28;20097;-69
2023/02/24 17:54:40;;;;;;;29.42;13.50;;;;;;;8.82;100.00;99064.75;20651110;28;20046;-69
2023/02/24 18:04:41;;;;;;;31.23;13.43;;;;;;;8.80;100.00;99075.19;20649544;28;20043;-69
2023/02/24 18:14:42;;;;;;;29.58;13.15;;;;;;;8.68;100.00;99075.59;20647052;28;20053;-69
2023/02/24 18:24:43;;;;;;;27.55;12.55;;;;;;;8.64;100.00;99080.03;20647225;28;20168;-70
2023/02/24 18:34:45;;;;;;;35.47;14.63;;;;;;;8.65;100.00;99101.75;20644593;28;20551;-68
2023/02/24 18:44:46;;;;;;;29.65;13.57;;;;;;;8.57;100.00;99093.28;20646063;28;20042;-69
2023/02/24 18:54:48;;;;;;;29.48;14.02;;;;;;;8.61;100.00;99100.13;20644906;28;20050;-69
2023/02/24 19:04:49;;;;;;;30.42;13.93;;;;;;;8.51;100.00;99090.84;20644914;28;20050;-69
2023/02/24 19:14:51;;;;;;;29.45;13.60;;;;;;;8.40;100.00;99092.00;20643498;28;20057;-69
2023/02/24 19:24:52;;;;;;;33.03;13.98;;;;;;;8.38;100.00;99092.94;20642943;28;20061;-69
2023/02/24 19:34:54;;;;;;;33.00;14.63;;;;;;;8.33;100.00;99100.84;20640841;28;20057;-69
2023/02/24 19:44:55;;;;;;;33.78;15.32;;;;;;;8.24;100.00;99093.31;20641418;28;20140;-68
2023/02/24 19:54:56;;;;;;;26.77;12.85;;;;;;;8.25;100.00;99097.63;20640608;28;20054;-69
2023/02/24 20:04:58;;;;;;;30.60;13.30;;;;;;;8.27;100.00;99105.41;20643878;28;20050;-69
2023/02/24 20:14:59;;;;;;;28.83;13.85;;;;;;;8.20;100.00;99118.59;20638467;28;20046;-68
2023/02/24 20:25:01;;;;;;;31.85;13.63;;;;;;;8.29;100.00;99120.13;20635169;28;20735;-69
2023/02/24 20:35:02;;;;;;;44.75;18.70;;;;;;;8.19;100.00;99124.72;20631528;28;20177;-69
2023/02/24 20:45:04;;;;;;;33.47;13.68;;;;;;;8.09;100.00;99136.25;20652422;28;20042;-69
2023/02/24 20:55:05;;;;;;;33.80;14.02;;;;;;;8.04;100.00;99165.94;20653372;28;20050;-69
2023/02/24 21:05:06;;;;;;;12.73;5.60;;;;;;;7.75;100.00;99180.56;20644723;28;20046;-69
2023/02/24 21:15:10;;;;;;;8.07;2.38;;;;;;;7.43;100.00;99168.31;20646967;28;20327;-69
2023/02/24 21:25:12;;;;;;;6.43;2.67;;;;;;;7.33;100.00;99177.19;20632572;28;20054;-69
2023/02/24 21:35:13;;;;;;;6.22;2.10;;;;;;;7.34;100.00;99190.19;20649237;28;20051;-68
2023/02/24 21:45:15;;;;;;;7.53;2.53;;;;;;;7.36;100.00;99183.19;20652326;28;20482;-71
2023/02/24 21:55:18;;;;;;;4.03;1.90;;;;;;;7.28;100.00;99192.06;20645987;28;20124;-71
2023/02/24 22:05:19;;;;;;;6.55;2.50;;;;;;;7.30;100.00;99191.13;20626652;28;20042;-70
2023/02/24 22:15:20;;;;;;;7.90;2.78;;;;;;;7.35;100.00;99191.03;20640286;28;20065;-71
2023/02/24 22:25:21;;;;;;;8.55;3.72;;;;;;;7.20;100.00;99202.66;20639182;28;20101;-71
2023/02/24 22:35:23;;;;;;;6.90;2.97;;;;;;;7.23;100.00;99215.56;20644513;28;20057;-72
2023/02/24 22:45:24;;;;;;;6.05;3.00;;;;;;;7.17;100.00;99197.50;20648169;28;20074;-71
2023/02/24 22:55:25;;;;;;;8.25;4.15;;;;;;;7.07;100.00;99194.22;20644806;28;20542;-71
2023/02/24 23:05:26;;;;;;;8.52;3.72;;;;;;;7.09;100.00;99209.81;20646306;28;20454;-70
2023/02/24 23:15:28;;;;;;;11.73;3.85;;;;;;;7.10;100.00;99219.34;20645767;28;20104;-70
2023/02/24 23:25:29;;;;;;;9.48;3.78;;;;;;;6.97;100.00;99233.50;20645967;28;20515;-70
2023/02/24 23:35:30;;;;;;;12.95;5.35;;;;;;;7.01;100.00;99248.16;20645055;28;20616;-72
2023/02/24 23:45:31;;;;;;;12.82;4.75;;;;;;;6.90;100.00;99257.03;20645649;28;20097;-71
2023/02/24 23:55:34;;;;;;;9.85;4.20;;;;;;;6.84;100.00;99262.34;20645061;28;20058;-71
